Time;durP1;ratioP1;P1;durP2;ratioP2;P2;SDS_P1;SDS_P2;PMS_P1;PMS_P2;Temp;Humidity;BMP_temperature;BMP_pressure;BME280_temperature;BME280_humidity;BME280_pressure;Samples;Min_cycle;Max_cycle;Signal;HPM_P1;HPM_P2
2021/08/05 00:01:19;;;;;;;6.55;4.40;;;;;;;;;;5055286;28;20021;-75
2021/08/05 00:03:45;;;;;;;7.30;5.03;;;;;;;;;;5054984;28;20426;-76
2021/08/05 00:06:11;;;;;;;7.60;4.25;;;;;;;;;;5055198;28;20534;-78
2021/08/05 00:08:37;;;;;;;9.10;4.40;;;;;;;;;;5054902;28;20036;-77
2021/08/05 00:11:04;;;;;;;6.88;4.63;;;;;;;;;;5055312;28;20066;-77
2021/08/05 00:13:30;;;;;;;8.18;4.40;;;;;;;;;;5054811;28;20029;-77
2021/08/05 00:15:56;;;;;;;6.88;4.25;;;;;;;;;;5055001;28;20025;-76
2021/08/05 00:18:22;;;;;;;9.23;4.97;;;;;;;;;;5054949;28;20044;-77
2021/08/05 00:20:49;;;;;;;7.20;4.47;;;;;;;;;;5054648;28;20055;-76
2021/08/05 00:23:16;;;;;;;7.15;4.90;;;;;;;;;;5054609;28;20033;-77
2021/08/05 00:25:41;;;;;;;9.20;4.95;;;;;;;;;;5054852;28;20083;-77
2021/08/05 00:28:07;;;;;;;7.60;4.47;;;;;;;;;;5054406;28;20057;-76
2021/08/05 00:30:33;;;;;;;6.72;4.70;;;;;;;;;;5054617;28;20105;-77
2021/08/05 00:32:59;;;;;;;6.93;4.75;;;;;;;;;;5054658;28;20116;-76
2021/08/05 00:35:25;;;;;;;5.97;4.25;;;;;;;;;;5054598;28;20135;-75
2021/08/05 00:37:51;;;;;;;5.95;4.05;;;;;;;;;;5054265;28;20035;-77
2021/08/05 00:40:17;;;;;;;8.30;4.57;;;;;;;;;;5054142;28;20453;-77
2021/08/05 00:42:44;;;;;;;7.80;4.75;;;;;;;;;;5054771;28;20108;-75
2021/08/05 00:45:10;;;;;;;6.63;4.65;;;;;;;;;;5054433;28;20025;-79
2021/08/05 00:47:36;;;;;;;6.55;4.25;;;;;;;;;;5054121;28;20025;-76
2021/08/05 00:50:02;;;;;;;7.95;4.90;;;;;;;;;;5054028;28;20025;-78
2021/08/05 00:52:28;;;;;;;5.93;4.25;;;;;;;;;;5054028;28;20027;-76
2021/08/05 00:54:54;;;;;;;7.35;4.40;;;;;;;;;;5053979;28;20096;-76
2021/08/05 00:57:20;;;;;;;7.85;4.90;;;;;;;;;;5053972;28;20525;-79
2021/08/05 00:59:46;;;;;;;9.32;5.47;;;;;;;;;;5053908;28;20052;-78
2021/08/05 01:02:19;;;;;;;7.78;5.30;;;;;;;;;;5053878;28;20025;-76
2021/08/05 01:04:48;;;;;;;9.38;5.63;;;;;;;;;;5053821;28;20497;-78
2021/08/05 01:07:16;;;;;;;10.63;5.55;;;;;;;;;;5054074;28;20021;-78
2021/08/05 01:10:02;;;;;;;8.00;5.22;;;;;;;;;;5053630;28;20470;-78
2021/08/05 01:12:50;;;;;;;8.52;5.13;;;;;;;;;;5054202;28;20033;-77
2021/08/05 01:15:26;;;;;;;7.72;4.90;;;;;;;;;;5053651;28;20025;-79
2021/08/05 01:18:09;;;;;;;7.85;4.95;;;;;;;;;;5053925;28;20060;-77
2021/08/05 01:20:35;;;;;;;10.13;5.22;;;;;;;;;;5053574;28;20029;-77
2021/08/05 01:23:11;;;;;;;7.75;5.05;;;;;;;;;;5053492;28;20115;-76
2021/08/05 01:25:43;;;;;;;10.23;5.28;;;;;;;;;;5053770;28;20358;-76
2021/08/05 01:28:10;;;;;;;7.43;4.97;;;;;;;;;;5053430;28;20084;-76
2021/08/05 01:30:37;;;;;;;8.25;5.18;;;;;;;;;;5053606;28;20025;-76
2021/08/05 01:33:03;;;;;;;8.77;5.10;;;;;;;;;;5053392;28;20388;-76
2021/08/05 01:35:30;;;;;;;6.85;4.85;;;;;;;;;;5053332;28;20017;-77
2021/08/05 01:37:56;;;;;;;8.10;4.80;;;;;;;;;;5053213;28;20036;-77
2021/08/05 01:40:23;;;;;;;8.70;5.10;;;;;;;;;;5053223;28;20032;-78
2021/08/05 01:42:49;;;;;;;7.95;4.90;;;;;;;;;;5053220;28;20438;-78
2021/08/05 01:45:16;;;;;;;7.55;4.88;;;;;;;;;;5053205;28;20035;-77
2021/08/05 01:47:43;;;;;;;9.70;5.28;;;;;;;;;;5053162;28;20028;-79
2021/08/05 01:50:11;;;;;;;7.20;4.78;;;;;;;;;;5053628;28;20403;-77
2021/08/05 01:52:38;;;;;;;8.00;5.30;;;;;;;;;;5052884;28;20056;-76
2021/08/05 01:55:08;;;;;;;9.23;5.50;;;;;;;;;;5053139;28;20067;-77
2021/08/05 01:57:34;;;;;;;7.53;5.07;;;;;;;;;;5053666;28;20047;-78
2021/08/05 02:00:00;;;;;;;12.43;5.05;;;;;;;;;;5053613;28;20373;-78
2021/08/05 02:02:28;;;;;;;6.25;4.47;;;;;;;;;;5053019;28;20025;-77
2021/08/05 02:04:54;;;;;;;7.05;5.18;;;;;;;;;;5053379;28;20021;-77
2021/08/05 02:07:24;;;;;;;7.47;4.90;;;;;;;;;;5053301;28;20033;-79
2021/08/05 02:09:58;;;;;;;8.38;5.53;;;;;;;;;;5053264;28;20488;-78
2021/08/05 02:12:24;;;;;;;12.13;5.38;;;;;;;;;;5053248;28;20055;-78
2021/08/05 02:14:52;;;;;;;8.00;5.03;;;;;;;;;;5052974;28;20017;-78
2021/08/05 02:17:18;;;;;;;8.23;4.95;;;;;;;;;;5052944;28;20136;-77
2021/08/05 02:19:45;;;;;;;10.25;5.13;;;;;;;;;;5053188;28;20032;-77
2021/08/05 02:22:11;;;;;;;10.73;5.53;;;;;;;;;;5053174;28;20511;-78
2021/08/05 02:24:38;;;;;;;11.40;5.47;;;;;;;;;;5052852;28;20029;-77
2021/08/05 02:27:04;;;;;;;8.43;5.40;;;;;;;;;;5052914;28;20049;-77
2021/08/05 02:29:31;;;;;;;9.00;5.50;;;;;;;;;;5053020;28;20144;-79
2021/08/05 02:31:57;;;;;;;11.63;5.80;;;;;;;;;;5052807;28;20025;-79
2021/08/05 02:34:24;;;;;;;9.55;5.95;;;;;;;;;;5053328;28;20099;-78
2021/08/05 02:36:50;;;;;;;13.27;5.70;;;;;;;;;;5052684;28;20070;-77
2021/08/05 02:39:16;;;;;;;12.95;5.70;;;;;;;;;;5052734;28;20366;-77
2021/08/05 02:41:43;;;;;;;8.70;5.72;;;;;;;;;;5052687;28;20032;-79
2021/08/05 02:44:09;;;;;;;10.18;5.80;;;;;;;;;;5052725;28;20434;-77
2021/08/05 02:46:35;;;;;;;9.55;5.30;;;;;;;;;;5052673;28;20033;-77
2021/08/05 02:49:02;;;;;;;9.77;6.03;;;;;;;;;;5052799;28;20535;-76
2021/08/05 02:51:28;;;;;;;8.98;5.35;;;;;;;;;;5052596;28;20397;-77
2021/08/05 02:53:55;;;;;;;12.25;5.22;;;;;;;;;;5034708;28;20478;-77
2021/08/05 02:56:21;;;;;;;9.45;5.50;;;;;;;;;;5052552;28;20048;-77
2021/08/05 02:58:47;;;;;;;8.52;5.60;;;;;;;;;;5052525;28;20392;-77
2021/08/05 03:01:14;;;;;;;9.20;5.88;;;;;;;;;;5052498;28;20033;-76
2021/08/05 03:03:41;;;;;;;8.45;5.65;;;;;;;;;;5052471;28;20033;-77
2021/08/05 03:06:08;;;;;;;11.57;5.90;;;;;;;;;;5055114;28;20029;-76
2021/08/05 03:08:38;;;;;;;9.50;5.65;;;;;;;;;;5056013;28;20025;-77
2021/08/05 03:11:03;;;;;;;10.35;6.13;;;;;;;;;;5056507;28;20025;-77
2021/08/05 03:13:29;;;;;;;11.90;6.55;;;;;;;;;;5055908;28;20366;-76
2021/08/05 03:15:55;;;;;;;9.80;6.40;;;;;;;;;;5055884;28;20033;-78
2021/08/05 03:18:21;;;;;;;12.80;7.53;;;;;;;;;;5055842;28;20449;-77
2021/08/05 03:20:47;;;;;;;11.98;6.53;;;;;;;;;;5055781;28;20029;-77
2021/08/05 03:23:13;;;;;;;11.20;6.38;;;;;;;;;;5056019;28;20373;-78
2021/08/05 03:25:39;;;;;;;9.02;6.28;;;;;;;;;;5055993;28;20028;-77
2021/08/05 03:28:05;;;;;;;12.30;7.55;;;;;;;;;;5055479;28;20480;-76
2021/08/05 03:30:31;;;;;;;10.23;7.03;;;;;;;;;;5055577;28;20029;-76
2021/08/05 03:33:01;;;;;;;10.60;7.18;;;;;;;;;;5055573;28;20473;-76
2021/08/05 03:35:29;;;;;;;10.40;6.70;;;;;;;;;;5055509;28;20021;-77
2021/08/05 03:37:55;;;;;;;11.80;7.43;;;;;;;;;;5055411;28;20061;-75
2021/08/05 03:40:21;;;;;;;11.35;7.03;;;;;;;;;;5055706;28;20491;-76
2021/08/05 03:42:47;;;;;;;9.98;6.65;;;;;;;;;;5055692;28;20028;-77
2021/08/05 03:45:13;;;;;;;10.90;7.20;;;;;;;;;;5055630;28;20392;-78
2021/08/05 03:47:39;;;;;;;10.15;6.55;;;;;;;;;;5055577;28;20028;-79
2021/08/05 03:50:06;;;;;;;11.57;6.90;;;;;;;;;;5055218;28;20040;-79
2021/08/05 03:52:32;;;;;;;10.13;6.90;;;;;;;;;;5055182;28;20024;-78
2021/08/05 03:54:58;;;;;;;12.52;6.53;;;;;;;;;;5055153;28;20171;-78
2021/08/05 03:57:24;;;;;;;11.57;6.47;;;;;;;;;;5055089;28;20457;-77
2021/08/05 03:59:50;;;;;;;9.77;6.55;;;;;;;;;;5055386;28;20035;-78
2021/08/05 04:02:16;;;;;;;11.57;6.30;;;;;;;;;;5055067;28;20029;-77
2021/08/05 04:04:42;;;;;;;9.68;6.85;;;;;;;;;;5054978;28;20039;-76
2021/08/05 04:07:08;;;;;;;10.77;6.75;;;;;;;;;;5054973;28;20095;-77
2021/08/05 04:09:35;;;;;;;10.40;6.20;;;;;;;;;;5055117;28;20025;-77
2021/08/05 04:12:01;;;;;;;10.65;7.05;;;;;;;;;;5055178;28;20385;-77
2021/08/05 04:14:27;;;;;;;9.65;6.25;;;;;;;;;;5054809;28;20036;-77
2021/08/05 04:16:53;;;;;;;8.98;6.18;;;;;;;;;;5054350;28;20028;-76
2021/08/05 04:19:19;;;;;;;8.57;5.95;;;;;;;;;;5054716;28;20033;-78
2021/08/05 04:21:45;;;;;;;9.23;6.35;;;;;;;;;;5054686;28;20045;-76
2021/08/05 04:24:11;;;;;;;9.15;6.00;;;;;;;;;;5055199;28;20088;-78
2021/08/05 04:26:37;;;;;;;9.77;6.47;;;;;;;;;;5054806;28;20032;-78
2021/08/05 04:29:03;;;;;;;10.25;6.70;;;;;;;;;;5054063;28;20528;-78
2021/08/05 04:31:29;;;;;;;12.38;6.43;;;;;;;;;;5054488;28;20147;-79
2021/08/05 04:33:55;;;;;;;10.25;6.53;;;;;;;;;;5054470;28;20027;-76
2021/08/05 04:36:21;;;;;;;11.20;6.50;;;;;;;;;;5054596;28;20025;-78
2021/08/05 04:38:47;;;;;;;9.73;6.32;;;;;;;;;;5054318;28;20109;-79
2021/08/05 04:41:13;;;;;;;9.63;5.97;;;;;;;;;;5054549;28;20060;-80
2021/08/05 04:43:39;;;;;;;9.95;5.93;;;;;;;;;;5054204;28;20558;-78
2021/08/05 04:46:05;;;;;;;8.20;5.55;;;;;;;;;;5054472;28;20040;-78
2021/08/05 04:48:31;;;;;;;8.70;5.32;;;;;;;;;;5054400;28;20025;-76
2021/08/05 04:50:57;;;;;;;10.38;5.72;;;;;;;;;;5054291;28;20025;-79
2021/08/05 04:53:23;;;;;;;8.88;5.22;;;;;;;;;;5054045;28;20051;-76
2021/08/05 04:55:49;;;;;;;10.45;5.40;;;;;;;;;;5054282;28;20389;-76
2021/08/05 04:58:15;;;;;;;8.68;5.45;;;;;;;;;;5054205;28;20013;-78
2021/08/05 05:00:42;;;;;;;9.85;5.53;;;;;;;;;;5053936;28;20025;-77
2021/08/05 05:03:08;;;;;;;9.15;5.85;;;;;;;;;;5054406;28;20048;-77
2021/08/05 05:05:34;;;;;;;10.32;6.63;;;;;;;;;;5053788;28;20389;-78
2021/08/05 05:08:20;;;;;;;11.55;6.15;;;;;;;;;;5054026;28;20029;-78
2021/08/05 05:10:47;;;;;;;11.45;5.97;;;;;;;;;;5054168;28;20033;-78
2021/08/05 05:13:13;;;;;;;9.10;5.78;;;;;;;;;;5054224;28;20064;-76
2021/08/05 05:15:39;;;;;;;7.90;5.30;;;;;;;;;;5053902;28;20032;-74
2021/08/05 05:18:06;;;;;;;9.45;5.88;;;;;;;;;;5053899;28;20021;-78
2021/08/05 05:20:32;;;;;;;11.93;6.10;;;;;;;;;;5053617;28;20474;-76
2021/08/05 05:22:58;;;;;;;8.73;5.90;;;;;;;;;;5053495;28;20049;-79
2021/08/05 05:25:24;;;;;;;9.45;5.85;;;;;;;;;;5053528;28;20028;-77
2021/08/05 05:27:50;;;;;;;11.93;6.18;;;;;;;;;;5052514;28;20450;-78
2021/08/05 05:30:16;;;;;;;11.00;6.50;;;;;;;;;;5053601;28;20029;-78
2021/08/05 05:32:43;;;;;;;11.52;7.40;;;;;;;;;;5035550;28;20456;-78
2021/08/05 05:35:10;;;;;;;11.23;6.75;;;;;;;;;;5053380;28;20031;-79
2021/08/05 05:37:36;;;;;;;10.15;6.55;;;;;;;;;;5053249;28;20079;-80
2021/08/05 05:40:03;;;;;;;12.48;6.63;;;;;;;;;;5053556;28;20032;-76
2021/08/05 05:42:30;;;;;;;12.25;7.15;;;;;;;;;;5053567;28;20427;-76
2021/08/05 05:44:56;;;;;;;12.77;6.78;;;;;;;;;;5053240;28;20033;-79
2021/08/05 05:47:22;;;;;;;10.75;6.18;;;;;;;;;;5053268;28;20104;-77
2021/08/05 05:49:48;;;;;;;12.32;6.82;;;;;;;;;;5053115;28;20499;-77
2021/08/05 05:52:14;;;;;;;10.75;6.72;;;;;;;;;;5053147;28;20013;-75
2021/08/05 05:54:41;;;;;;;11.55;7.22;;;;;;;;;;5053151;28;20025;-78
2021/08/05 05:57:07;;;;;;;12.38;7.70;;;;;;;;;;5053124;28;20022;-77
2021/08/05 05:59:33;;;;;;;13.52;7.57;;;;;;;;;;5053089;28;20033;-78
2021/08/05 06:01:59;;;;;;;12.68;6.60;;;;;;;;;;5053097;28;20109;-78
2021/08/05 06:04:26;;;;;;;11.60;7.35;;;;;;;;;;5053081;28;20065;-78
2021/08/05 06:06:52;;;;;;;12.80;7.13;;;;;;;;;;5053068;28;20021;-77
2021/08/05 06:09:18;;;;;;;14.75;7.45;;;;;;;;;;5053189;28;20040;-80
2021/08/05 06:11:44;;;;;;;10.23;7.03;;;;;;;;;;5053041;28;20021;-77
2021/08/05 06:14:10;;;;;;;11.00;7.13;;;;;;;;;;5052935;28;20033;-77
2021/08/05 06:16:36;;;;;;;13.98;7.45;;;;;;;;;;5052952;28;20108;-79
2021/08/05 06:19:02;;;;;;;11.25;7.28;;;;;;;;;;5052944;28;20021;-77
2021/08/05 06:21:28;;;;;;;14.25;7.95;;;;;;;;;;5052913;28;20017;-79
2021/08/05 06:23:54;;;;;;;11.70;7.53;;;;;;;;;;5052902;28;20484;-76
2021/08/05 06:26:21;;;;;;;13.30;7.80;;;;;;;;;;5052877;28;20017;-75
2021/08/05 06:28:47;;;;;;;13.75;7.05;;;;;;;;;;5052441;28;20044;-78
2021/08/05 06:31:15;;;;;;;11.60;6.82;;;;;;;;;;5052992;28;20021;-75
2021/08/05 06:33:41;;;;;;;10.93;6.45;;;;;;;;;;5034571;28;20032;-78
2021/08/05 06:36:07;;;;;;;11.88;7.18;;;;;;;;;;5052773;28;20017;-79
2021/08/05 06:38:33;;;;;;;12.65;7.05;;;;;;;;;;5053037;28;20025;-77
2021/08/05 06:40:59;;;;;;;12.70;7.15;;;;;;;;;;5056598;28;20079;-79
2021/08/05 06:43:25;;;;;;;12.63;6.55;;;;;;;;;;5056514;28;20099;-75
2021/08/05 06:45:52;;;;;;;12.13;7.15;;;;;;;;;;5056487;28;20366;-78
2021/08/05 06:48:18;;;;;;;12.10;6.50;;;;;;;;;;5056716;28;20025;-77
2021/08/05 06:50:44;;;;;;;11.32;6.32;;;;;;;;;;5056294;28;20078;-76
2021/08/05 06:53:11;;;;;;;12.70;6.13;;;;;;;;;;5056355;28;20061;-77
2021/08/05 06:55:37;;;;;;;10.20;5.30;;;;;;;;;;5056569;28;20414;-78
2021/08/05 06:58:03;;;;;;;9.93;5.25;;;;;;;;;;5056245;28;20054;-77
2021/08/05 07:00:29;;;;;;;10.52;5.65;;;;;;;;;;5056461;28;20055;-75
2021/08/05 07:02:55;;;;;;;10.82;5.82;;;;;;;;;;5056410;28;20029;-77
2021/08/05 07:05:21;;;;;;;11.73;6.07;;;;;;;;;;5056346;28;20021;-76
2021/08/05 07:07:47;;;;;;;9.70;5.22;;;;;;;;;;5056035;28;20500;-75
2021/08/05 07:10:13;;;;;;;11.32;5.47;;;;;;;;;;5069318;28;20024;-80
2021/08/05 07:12:39;;;;;;;10.90;5.30;;;;;;;;;;5076281;28;20035;-79
2021/08/05 07:15:06;;;;;;;7.75;4.68;;;;;;;;;;5075485;28;20151;-82
2021/08/05 07:17:32;;;;;;;10.63;4.97;;;;;;;;;;5075920;28;20031;-81
2021/08/05 07:19:58;;;;;;;9.98;4.47;;;;;;;;;;5074057;28;20029;-78
2021/08/05 07:22:24;;;;;;;8.50;4.30;;;;;;;;;;5069708;28;20447;-78
2021/08/05 07:24:50;;;;;;;10.15;5.03;;;;;;;;;;5059057;28;20029;-79
2021/08/05 07:27:16;;;;;;;6.70;4.00;;;;;;;;;;5055494;28;20041;-82
2021/08/05 07:29:42;;;;;;;7.00;4.07;;;;;;;;;;5055563;28;20029;-78
2021/08/05 07:32:08;;;;;;;8.80;4.72;;;;;;;;;;5058016;28;20116;-79
2021/08/05 07:34:35;;;;;;;8.27;4.30;;;;;;;;;;5075594;28;20016;-79
2021/08/05 07:37:01;;;;;;;7.65;4.32;;;;;;;;;;5061103;28;20029;-78
2021/08/05 07:39:29;;;;;;;9.05;4.80;;;;;;;;;;5055920;28;20427;-81
2021/08/05 07:41:55;;;;;;;7.07;4.40;;;;;;;;;;5055969;28;20108;-80
2021/08/05 07:44:21;;;;;;;7.50;4.28;;;;;;;;;;5067816;28;20024;-78
2021/08/05 07:46:48;;;;;;;11.68;4.25;;;;;;;;;;5074018;28;20526;-79
2021/08/05 07:49:14;;;;;;;9.13;4.07;;;;;;;;;;5075478;28;20028;-81
2021/08/05 07:51:40;;;;;;;9.45;4.63;;;;;;;;;;5073954;28;20033;-81
2021/08/05 07:54:06;;;;;;;8.25;4.55;;;;;;;;;;5071982;28;20032;-82
2021/08/05 07:56:32;;;;;;;7.05;4.05;;;;;;;;;;5037276;28;20063;-76
2021/08/05 07:58:58;;;;;;;6.13;4.15;;;;;;;;;;5064553;28;20028;-78
2021/08/05 08:01:25;;;;;;;8.38;3.92;;;;;;;;;;5074223;28;20031;-79
2021/08/05 08:03:51;;;;;;;8.23;4.70;;;;;;;;;;5075505;28;20025;-78
2021/08/05 08:06:18;;;;;;;7.40;3.95;;;;;;;;;;5061226;28;20028;-78
2021/08/05 08:08:44;;;;;;;8.30;4.10;;;;;;;;;;5065331;28;20039;-78
2021/08/05 08:11:10;;;;;;;5.63;3.28;;;;;;;;;;5075339;28;20028;-79
2021/08/05 08:13:36;;;;;;;7.53;3.78;;;;;;;;;;5067090;28;20397;-81
2021/08/05 08:16:02;;;;;;;7.20;3.70;;;;;;;;;;5054528;28;20033;-77
2021/08/05 08:18:28;;;;;;;7.00;3.88;;;;;;;;;;5036901;28;20393;-79
2021/08/05 08:20:55;;;;;;;6.30;3.42;;;;;;;;;;5054714;28;20021;-80
2021/08/05 08:23:21;;;;;;;7.40;3.72;;;;;;;;;;5055513;28;20086;-79
2021/08/05 08:25:47;;;;;;;7.47;3.42;;;;;;;;;;5064272;28;20051;-79
2021/08/05 08:28:13;;;;;;;7.35;3.38;;;;;;;;;;5074333;28;20044;-76
2021/08/05 08:30:40;;;;;;;4.38;2.90;;;;;;;;;;5074015;28;20036;-78
2021/08/05 08:33:06;;;;;;;5.38;3.28;;;;;;;;;;5067082;28;20033;-75
2021/08/05 08:35:32;;;;;;;7.25;2.90;;;;;;;;;;5054160;28;20072;-80
2021/08/05 08:37:58;;;;;;;5.65;2.97;;;;;;;;;;5069013;28;20108;-81
2021/08/05 08:40:24;;;;;;;4.72;2.55;;;;;;;;;;5073426;28;20055;-81
2021/08/05 08:42:50;;;;;;;5.70;3.20;;;;;;;;;;5050079;28;20037;-82
2021/08/05 08:45:16;;;;;;;6.10;2.92;;;;;;;;;;5068601;28;20492;-81
2021/08/05 08:47:45;;;;;;;5.45;2.90;;;;;;;;;;5073507;28;20027;-80
2021/08/05 08:50:11;;;;;;;8.00;3.08;;;;;;;;;;5074007;28;20043;-82
2021/08/05 08:52:40;;;;;;;5.95;2.75;;;;;;;;;;5074624;28;20029;-80
2021/08/05 08:55:06;;;;;;;4.78;2.80;;;;;;;;;;5058995;28;20432;-79
2021/08/05 08:57:34;;;;;;;5.72;2.78;;;;;;;;;;5054262;28;20059;-80
2021/08/05 09:00:02;;;;;;;4.22;2.67;;;;;;;;;;5060810;28;20032;-79
2021/08/05 09:02:28;;;;;;;4.95;2.92;;;;;;;;;;5073825;28;20024;-79
2021/08/05 09:04:54;;;;;;;5.80;2.75;;;;;;;;;;5066970;28;20040;-80
2021/08/05 09:07:22;;;;;;;6.13;3.03;;;;;;;;;;5062060;28;20020;-80
2021/08/05 09:09:48;;;;;;;5.45;3.00;;;;;;;;;;5069207;28;20112;-76
2021/08/05 09:12:15;;;;;;;5.97;2.92;;;;;;;;;;5073022;28;20429;-80
2021/08/05 09:14:46;;;;;;;12.50;2.88;;;;;;;;;;5053681;28;20059;-79
2021/08/05 09:17:16;;;;;;;5.95;2.92;;;;;;;;;;5054626;28;20518;-79
2021/08/05 09:19:42;;;;;;;5.47;2.75;;;;;;;;;;5053997;28;20116;-80
2021/08/05 09:22:08;;;;;;;5.85;2.83;;;;;;;;;;5064365;28;20032;-79
2021/08/05 09:24:34;;;;;;;3.90;2.65;;;;;;;;;;5053565;28;20369;-83
2021/08/05 09:27:02;;;;;;;4.90;2.65;;;;;;;;;;5061548;28;20099;-80
2021/08/05 09:29:29;;;;;;;4.60;2.78;;;;;;;;;;5053763;28;20037;-82
2021/08/05 09:32:03;;;;;;;5.80;2.80;;;;;;;;;;5060639;28;20052;-81
2021/08/05 09:34:40;;;;;;;5.50;2.40;;;;;;;;;;5055207;28;20473;-82
2021/08/05 09:37:14;;;;;;;4.75;2.60;;;;;;;;;;5053974;28;20028;-82
2021/08/05 09:39:45;;;;;;;3.35;2.60;;;;;;;;;;5056336;28;20032;-78
2021/08/05 09:42:12;;;;;;;4.80;2.70;;;;;;;;;;5057343;28;20078;-81
2021/08/05 09:44:38;;;;;;;4.57;2.92;;;;;;;;;;5061495;28;20509;-82
2021/08/05 09:47:04;;;;;;;5.13;2.78;;;;;;;;;;5035411;28;20040;-81
2021/08/05 09:49:30;;;;;;;6.57;2.42;;;;;;;;;;5053169;28;20150;-80
2021/08/05 09:51:57;;;;;;;5.28;2.72;;;;;;;;;;5053217;28;20029;-81
2021/08/05 09:54:23;;;;;;;4.60;2.70;;;;;;;;;;5057290;28;20024;-79
2021/08/05 09:56:55;;;;;;;3.85;2.22;;;;;;;;;;5043901;28;20083;-82
2021/08/05 09:59:21;;;;;;;3.67;2.30;;;;;;;;;;5052802;28;20059;-82
2021/08/05 10:01:57;;;;;;;3.58;2.20;;;;;;;;;;5052778;28;20029;-82
2021/08/05 10:04:24;;;;;;;3.15;1.98;;;;;;;;;;5053405;28;20075;-80
2021/08/05 10:07:17;;;;;;;3.60;1.98;;;;;;;;;;5053000;28;20025;-79
2021/08/05 10:09:44;;;;;;;4.10;2.47;;;;;;;;;;5050232;28;20033;-80
2021/08/05 10:12:18;;;;;;;3.92;2.45;;;;;;;;;;5052696;28;20025;-79
2021/08/05 10:14:44;;;;;;;4.93;2.60;;;;;;;;;;5037520;28;20043;-80
2021/08/05 10:17:11;;;;;;;4.68;2.30;;;;;;;;;;5060486;28;20146;-77
2021/08/05 10:19:38;;;;;;;3.53;2.42;;;;;;;;;;5056987;28;20033;-78
2021/08/05 10:22:05;;;;;;;5.57;2.45;;;;;;;;;;5056913;28;20100;-79
2021/08/05 10:24:33;;;;;;;2.97;2.25;;;;;;;;;;5057462;28;20029;-79
2021/08/05 10:26:59;;;;;;;4.57;2.30;;;;;;;;;;5056671;28;20041;-77
2021/08/05 10:29:25;;;;;;;3.67;1.90;;;;;;;;;;5057099;28;20189;-79
2021/08/05 10:31:52;;;;;;;3.35;2.35;;;;;;;;;;5056733;28;20027;-79
2021/08/05 10:34:18;;;;;;;5.75;2.47;;;;;;;;;;5056703;28;20470;-79
2021/08/05 10:36:44;;;;;;;5.95;2.60;;;;;;;;;;5056563;28;20021;-79
2021/08/05 10:39:10;;;;;;;5.43;2.90;;;;;;;;;;5038638;28;20025;-79
2021/08/05 10:41:36;;;;;;;4.72;2.78;;;;;;;;;;5056561;28;20057;-79
2021/08/05 10:44:02;;;;;;;7.20;2.72;;;;;;;;;;5056802;28;20036;-79
2021/08/05 10:46:33;;;;;;;5.70;2.65;;;;;;;;;;5056464;28;20071;-79
2021/08/05 10:49:03;;;;;;;5.25;2.75;;;;;;;;;;5056814;28;20029;-79
2021/08/05 10:51:34;;;;;;;5.40;3.05;;;;;;;;;;5056633;28;20436;-79
2021/08/05 10:54:00;;;;;;;4.00;2.60;;;;;;;;;;5056659;28;20504;-78
2021/08/05 10:56:26;;;;;;;4.18;2.35;;;;;;;;;;5056275;28;20068;-78
2021/08/05 10:59:01;;;;;;;3.65;2.28;;;;;;;;;;5056795;28;20167;-78
2021/08/05 11:01:46;;;;;;;3.00;2.13;;;;;;;;;;5056473;28;20021;-78
2021/08/05 11:04:30;;;;;;;4.03;2.30;;;;;;;;;;5056151;28;20040;-79
2021/08/05 11:06:57;;;;;;;4.13;2.47;;;;;;;;;;5056134;28;20029;-79
2021/08/05 11:09:26;;;;;;;5.28;2.50;;;;;;;;;;5056249;28;20025;-78
2021/08/05 11:11:53;;;;;;;4.10;2.20;;;;;;;;;;5056601;28;20074;-79
2021/08/05 11:14:21;;;;;;;3.47;2.13;;;;;;;;;;5056211;28;20021;-78
2021/08/05 11:16:54;;;;;;;3.10;1.67;;;;;;;;;;5055943;28;20094;-79
2021/08/05 11:19:26;;;;;;;3.30;1.60;;;;;;;;;;5056149;28;20025;-78
2021/08/05 11:21:53;;;;;;;1.88;1.60;;;;;;;;;;5056157;28;20021;-78
2021/08/05 11:24:38;;;;;;;2.00;1.50;;;;;;;;;;5037894;28;20021;-78
2021/08/05 11:27:14;;;;;;;2.33;1.80;;;;;;;;;;5054566;28;20517;-78
2021/08/05 11:29:40;;;;;;;3.60;2.15;;;;;;;;;;5056230;28;20427;-78
2021/08/05 11:32:29;;;;;;;4.22;2.17;;;;;;;;;;5055659;28;20052;-78
2021/08/05 11:35:00;;;;;;;3.00;1.67;;;;;;;;;;5025362;28;20044;-79
2021/08/05 11:37:26;;;;;;;2.10;1.52;;;;;;;;;;5055845;28;20468;-78
2021/08/05 11:39:52;;;;;;;2.20;1.63;;;;;;;;;;5055510;28;20100;-78
2021/08/05 11:42:19;;;;;;;2.33;1.52;;;;;;;;;;5055418;28;20129;-78
2021/08/05 11:44:58;;;;;;;2.58;1.58;;;;;;;;;;5055361;28;20052;-79
2021/08/05 11:47:24;;;;;;;1.90;1.50;;;;;;;;;;5055381;28;20106;-79
2021/08/05 11:49:51;;;;;;;2.17;1.30;;;;;;;;;;5055510;28;20496;-79
2021/08/05 11:52:25;;;;;;;2.85;1.45;;;;;;;;;;5055260;28;20017;-78
2021/08/05 11:54:52;;;;;;;2.65;1.60;;;;;;;;;;5055181;28;20029;-78
2021/08/05 11:57:20;;;;;;;3.25;1.60;;;;;;;;;;5055391;28;20025;-79
2021/08/05 11:59:47;;;;;;;3.28;1.67;;;;;;;;;;5055088;28;20064;-79
2021/08/05 12:02:23;;;;;;;3.47;1.90;;;;;;;;;;5055071;28;20041;-78
2021/08/05 12:04:50;;;;;;;3.67;1.80;;;;;;;;;;5067667;28;20035;-81
2021/08/05 12:07:16;;;;;;;3.67;1.67;;;;;;;;;;5062350;28;20044;-80
2021/08/05 12:09:42;;;;;;;4.90;1.83;;;;;;;;;;5054863;28;20029;-80
2021/08/05 12:12:09;;;;;;;2.13;1.65;;;;;;;;;;5063584;28;20544;-85
2021/08/05 12:14:35;;;;;;;4.30;2.08;;;;;;;;;;5057751;28;20157;-87
2021/08/05 12:17:01;;;;;;;3.10;1.88;;;;;;;;;;5042105;28;20123;-75
2021/08/05 12:19:32;;;;;;;4.40;2.05;;;;;;;;;;5054844;28;20528;-81
2021/08/05 12:21:58;;;;;;;5.55;2.10;;;;;;;;;;5054653;28;20037;-83
2021/08/05 12:24:26;;;;;;;6.00;2.50;;;;;;;;;;5054966;28;20454;-80
2021/08/05 12:26:58;;;;;;;6.07;2.45;;;;;;;;;;5055260;28;20032;-83
2021/08/05 12:29:24;;;;;;;5.00;2.28;;;;;;;;;;5041593;28;20044;-79
2021/08/05 12:31:50;;;;;;;5.75;2.10;;;;;;;;;;5073615;28;20023;-84
2021/08/05 12:34:18;;;;;;;5.00;2.40;;;;;;;;;;5056500;28;20494;-82
2021/08/05 12:36:45;;;;;;;5.47;2.47;;;;;;;;;;5055167;28;20390;-77
2021/08/05 12:39:11;;;;;;;5.30;2.50;;;;;;;;;;5054573;28;20021;-83
2021/08/05 12:41:41;;;;;;;6.15;2.80;;;;;;;;;;5071728;28;20037;-85
2021/08/05 12:44:08;;;;;;;7.65;2.83;;;;;;;;;;5057137;28;20108;-79
2021/08/05 12:46:36;;;;;;;7.60;2.78;;;;;;;;;;5057865;28;20035;-78
2021/08/05 12:49:02;;;;;;;5.97;2.75;;;;;;;;;;5065764;28;20028;-77
2021/08/05 12:51:29;;;;;;;6.10;2.97;;;;;;;;;;5062784;28;20421;-84
2021/08/05 12:53:55;;;;;;;6.55;2.70;;;;;;;;;;5054071;28;20021;-81
2021/08/05 12:56:41;;;;;;;8.48;2.90;;;;;;;;;;5054660;28;20029;-81
2021/08/05 12:59:07;;;;;;;8.15;2.95;;;;;;;;;;5054418;28;20411;-78
2021/08/05 13:01:33;;;;;;;6.82;3.15;;;;;;;;;;5062637;28;20077;-78
2021/08/05 13:03:59;;;;;;;8.82;3.25;;;;;;;;;;5053851;28;20104;-78
2021/08/05 13:06:48;;;;;;;6.20;2.90;;;;;;;;;;5036215;28;20052;-79
2021/08/05 13:09:14;;;;;;;7.13;3.40;;;;;;;;;;5053873;28;20025;-81
2021/08/05 13:11:40;;;;;;;7.45;3.13;;;;;;;;;;5066173;28;20040;-80
2021/08/05 13:14:06;;;;;;;9.20;3.03;;;;;;;;;;5054093;28;20484;-77
2021/08/05 13:16:36;;;;;;;9.68;3.10;;;;;;;;;;5060581;28;20032;-78
2021/08/05 13:19:02;;;;;;;;;;;;;;;;;;5074663;28;20016;-77
2021/08/05 13:21:29;;;;;;;8.93;3.38;;;;;;;;;;5072954;28;19911;-77
2021/08/05 13:23:55;;;;;;;9.25;3.10;;;;;;;;;;5073644;28;20032;-78
2021/08/05 13:26:34;;;;;;;11.57;3.10;;;;;;;;;;5059864;28;20049;-79
2021/08/05 13:29:01;;;;;;;10.75;3.67;;;;;;;;;;5053082;28;20060;-77
2021/08/05 13:31:27;;;;;;;10.32;3.13;;;;;;;;;;5066802;28;20032;-82
2021/08/05 13:34:08;;;;;;;10.00;3.33;;;;;;;;;;5055510;28;20431;-82
2021/08/05 13:36:36;;;;;;;7.72;3.05;;;;;;;;;;5040775;28;20029;-83
2021/08/05 13:39:02;;;;;;;8.02;2.88;;;;;;;;;;5054602;28;20079;-78
2021/08/05 13:41:28;;;;;;;7.95;3.30;;;;;;;;;;5053563;28;20078;-78
2021/08/05 13:43:54;;;;;;;8.02;3.40;;;;;;;;;;5053529;28;20029;-79
2021/08/05 13:46:20;;;;;;;9.40;3.85;;;;;;;;;;5053325;28;20028;-76
2021/08/05 13:48:46;;;;;;;10.27;4.43;;;;;;;;;;5061132;28;20032;-77
2021/08/05 13:51:12;;;;;;;15.50;6.63;;;;;;;;;;5072618;28;20418;-78
2021/08/05 13:53:38;;;;;;;11.90;5.82;;;;;;;;;;5073169;28;20032;-76
2021/08/05 13:56:04;;;;;;;8.25;3.55;;;;;;;;;;5068755;28;20032;-76
2021/08/05 13:58:32;;;;;;;5.03;2.60;;;;;;;;;;5053365;28;20021;-78
2021/08/05 14:00:58;;;;;;;7.32;2.75;;;;;;;;;;5053104;28;20467;-78
2021/08/05 14:03:24;;;;;;;5.53;2.40;;;;;;;;;;5052858;28;20485;-75
2021/08/05 14:05:50;;;;;;;6.53;1.98;;;;;;;;;;5053082;28;20507;-75
2021/08/05 14:08:16;;;;;;;7.72;2.60;;;;;;;;;;5061196;28;20029;-78
2021/08/05 14:10:44;;;;;;;5.55;2.40;;;;;;;;;;5063513;28;20044;-77
2021/08/05 14:13:10;;;;;;;7.28;2.80;;;;;;;;;;5053820;28;20389;-80
2021/08/05 14:15:36;;;;;;;6.57;2.42;;;;;;;;;;5066862;28;20058;-77
2021/08/05 14:18:02;;;;;;;6.65;2.42;;;;;;;;;;5073746;28;20036;-83
2021/08/05 14:20:28;;;;;;;7.38;3.10;;;;;;;;;;5055556;28;20025;-79
2021/08/05 14:22:56;;;;;;;4.22;2.10;;;;;;;;;;5073638;28;20025;-77
2021/08/05 14:25:22;;;;;;;7.97;2.78;;;;;;;;;;5061543;28;20021;-77
2021/08/05 14:27:48;;;;;;;10.68;2.58;;;;;;;;;;5052896;28;20055;-79
2021/08/05 14:30:15;;;;;;;9.70;2.85;;;;;;;;;;5043876;28;20104;-77
2021/08/05 14:32:41;;;;;;;7.63;2.13;;;;;;;;;;5072785;28;20094;-79
2021/08/05 14:35:08;;;;;;;9.50;3.10;;;;;;;;;;5072797;28;20023;-78
2021/08/05 14:37:34;;;;;;;7.97;2.53;;;;;;;;;;5072971;28;20031;-80
2021/08/05 14:40:00;;;;;;;7.75;2.47;;;;;;;;;;5062478;28;20108;-79
2021/08/05 14:42:26;;;;;;;10.27;2.92;;;;;;;;;;5053283;28;20126;-77